createdAt,value
2019-04-28T00:02:06.831Z,67.35
2019-04-28T00:04:37.446Z,67.08
2019-04-28T00:07:15.864Z,67.20
2019-04-28T00:09:46.154Z,67.05
2019-04-28T00:12:17.123Z,67.02
2019-04-28T00:14:47.730Z,66.88
2019-04-28T00:17:18.349Z,66.90
2019-04-28T00:19:48.797Z,67.28
2019-04-28T00:22:32.551Z,67.17
2019-04-28T00:25:24.428Z,67.38
2019-04-28T00:27:55.206Z,67.88
2019-04-28T00:30:28.067Z,68.30
2019-04-28T00:33:01.696Z,67.72
2019-04-28T00:35:35.254Z,67.88
2019-04-28T00:38:05.823Z,67.99
2019-04-28T00:40:37.664Z,67.94
2019-04-28T00:43:07.943Z,67.75
2019-04-28T00:45:39.132Z,67.45
2019-04-28T00:48:10.961Z,67.11
2019-04-28T00:50:43.804Z,66.90
2019-04-28T00:53:14.139Z,67.02
2019-04-28T00:55:44.475Z,67.17
2019-04-28T00:58:14.820Z,66.86
2019-04-28T01:00:46.848Z,66.88
2019-04-28T01:03:17.709Z,66.66
2019-04-28T01:05:48.028Z,66.66
2019-04-28T01:08:18.346Z,67.11
2019-04-28T01:10:50.745Z,67.23
2019-04-28T01:13:21.481Z,67.07
2019-04-28T01:15:59.807Z,67.01
2019-04-28T01:18:36.305Z,66.74
2019-04-28T01:21:08.368Z,67.09
2019-04-28T01:23:40.266Z,67.28
2019-04-28T01:26:10.550Z,67.25
2019-04-28T01:28:42.471Z,67.38
2019-04-28T01:31:39.515Z,67.19
2019-04-28T01:34:20.914Z,67.46
2019-04-28T01:36:52.534Z,67.57
2019-04-28T01:39:22.797Z,67.85
2019-04-28T01:41:53.134Z,67.79
2019-04-28T01:44:23.724Z,68.14
2019-04-28T01:46:54.424Z,67.83
2019-04-28T01:49:24.687Z,67.81
2019-04-28T01:52:00.834Z,67.96
2019-04-28T01:54:30.847Z,68.17
2019-04-28T01:57:01.704Z,68.27
2019-04-28T01:59:32.117Z,68.42
2019-04-28T02:02:02.674Z,68.57
2019-04-28T02:04:32.947Z,68.77
2019-04-28T02:07:03.539Z,68.96
2019-04-28T02:09:33.804Z,69.17
2019-04-28T02:12:04.340Z,69.26
2019-04-28T02:14:34.623Z,69.36
2019-04-28T02:17:04.992Z,69.43
2019-04-28T02:19:35.584Z,69.31
2019-04-28T02:22:14.731Z,69.49
2019-04-28T02:24:44.991Z,69.34
2019-04-28T02:27:17.045Z,69.03
2019-04-28T02:29:47.331Z,69.25
2019-04-28T02:32:21.290Z,69.42
2019-04-28T02:34:50.823Z,69.53
2019-04-28T02:37:21.763Z,69.36
2019-04-28T02:39:52.052Z,69.24
2019-04-28T02:42:23.954Z,69.46
2019-04-28T02:44:55.258Z,69.62
2019-04-28T02:47:27.881Z,70.18
2019-04-28T02:50:03.727Z,70.18
2019-04-28T02:53:01.593Z,70.32
2019-04-28T02:55:32.868Z,70.23
2019-04-28T02:58:04.866Z,69.85
2019-04-28T03:00:35.162Z,70.08
2019-04-28T03:03:05.498Z,70.07
2019-04-28T03:05:35.833Z,70.18
2019-04-28T03:08:06.495Z,70.45
2019-04-28T03:10:37.042Z,70.63
2019-04-28T03:13:07.615Z,70.69
2019-04-28T03:15:37.994Z,70.90
2019-04-28T03:18:08.264Z,71.12
2019-04-28T03:20:41.530Z,71.28
2019-04-28T03:23:12.433Z,71.16
2019-04-28T03:25:50.807Z,71.10
2019-04-28T03:28:42.882Z,71.41
2019-04-28T03:32:04.011Z,71.60
2019-04-28T03:34:12.947Z,71.73
2019-04-28T03:36:43.186Z,71.89
2019-04-28T03:39:13.480Z,72.03
2019-04-28T03:41:43.879Z,72.11
2019-04-28T03:44:14.134Z,71.93
2019-04-28T03:46:51.211Z,71.45
2019-04-28T03:49:34.612Z,71.21
2019-04-28T03:52:05.999Z,71.26
2019-04-28T03:54:36.603Z,71.16
2019-04-28T03:57:06.902Z,71.16
2019-04-28T03:59:37.215Z,71.31
2019-04-28T04:02:07.555Z,71.27
2019-04-28T04:04:40.720Z,71.23
2019-04-28T04:07:11.149Z,71.08
2019-04-28T04:09:52.386Z,70.90
2019-04-28T04:12:40.357Z,70.66
2019-04-28T04:15:32.391Z,70.65
2019-04-28T04:18:07.272Z,70.65
2019-04-28T04:20:37.680Z,69.99
2019-04-28T04:23:11.073Z,69.81
2019-04-28T04:25:41.889Z,69.61
2019-04-28T04:28:12.576Z,69.61
2019-04-28T04:30:43.098Z,69.67
2019-04-28T04:33:13.642Z,69.81
2019-04-28T04:35:43.946Z,69.12
2019-04-28T04:38:14.256Z,69.02
2019-04-28T04:40:44.586Z,69.17
2019-04-28T04:43:16.661Z,69.26
2019-04-28T04:45:46.926Z,69.16
2019-04-28T04:48:21.468Z,69.56
2019-04-28T04:50:51.276Z,69.61
2019-04-28T04:53:21.801Z,69.56
2019-04-28T04:55:52.720Z,69.60
2019-04-28T04:58:23.027Z,69.57
2019-04-28T05:01:07.882Z,69.63
2019-04-28T05:03:41.749Z,69.72
2019-04-28T05:06:29.875Z,69.85
2019-04-28T05:09:00.178Z,69.80
2019-04-28T05:11:30.472Z,69.76
2019-04-28T05:14:01.026Z,69.67
2019-04-28T05:16:34.881Z,69.68
2019-04-28T05:19:05.483Z,69.54
2019-04-28T05:21:36.164Z,69.32
2019-04-28T05:24:24.341Z,69.21
2019-04-28T05:26:54.950Z,69.02
2019-04-28T05:29:26.831Z,68.60
2019-04-28T05:32:02.008Z,68.30
2019-04-28T05:34:30.895Z,68.04
2019-04-28T05:37:02.504Z,67.99
2019-04-28T05:39:32.839Z,67.76
2019-04-28T05:42:05.608Z,67.47
2019-04-28T05:44:37.610Z,67.03
2019-04-28T05:47:10.045Z,66.64
2019-04-28T05:49:53.458Z,66.86
2019-04-28T05:53:01.093Z,66.55
2019-04-28T05:55:42.578Z,66.42
2019-04-28T05:58:30.271Z,66.57
2019-04-28T06:01:25.483Z,66.51
2019-04-28T06:03:55.904Z,66.22
2019-04-28T06:06:30.342Z,65.84
2019-04-28T06:09:29.482Z,65.07
2019-04-28T06:12:00.194Z,64.70
2019-04-28T06:14:34.225Z,64.85
2019-04-28T06:17:04.498Z,64.05
2019-04-28T06:19:35.058Z,64.02
2019-04-28T06:22:05.347Z,63.29
2019-04-28T06:24:36.826Z,63.32
2019-04-28T06:27:08.727Z,62.33
2019-04-28T06:29:39.073Z,62.33
2019-04-28T06:32:09.621Z,61.13
2019-04-28T06:34:39.930Z,59.48
2019-04-28T06:37:10.515Z,57.89
2019-04-28T06:39:41.186Z,57.89
2019-04-28T06:42:13.066Z,57.07
2019-04-28T06:44:43.429Z,56.81
2019-04-28T06:47:16.653Z,56.87
2019-04-28T06:49:45.979Z,55.91
2019-04-28T06:52:16.588Z,55.62
2019-04-28T06:54:47.202Z,55.14
2019-04-28T06:57:17.536Z,56.15
2019-04-28T06:59:47.839Z,57.01
2019-04-28T07:02:18.151Z,57.08
2019-04-28T07:05:00.945Z,57.68
2019-04-28T07:07:21.091Z,56.53
2019-04-28T07:09:51.344Z,55.03
2019-04-28T07:12:23.054Z,55.27
2019-04-28T07:14:53.901Z,56.24
2019-04-28T07:17:25.715Z,54.95
2019-04-28T07:20:03.697Z,55.06
2019-04-28T07:22:34.447Z,55.96
2019-04-28T07:25:05.067Z,56.86
2019-04-28T07:27:36.846Z,57.69
2019-04-28T07:30:07.499Z,58.66
2019-04-28T07:32:39.330Z,59.02
2019-04-28T07:35:11.107Z,59.26
2019-04-28T07:37:41.594Z,59.22
2019-04-28T07:40:12.197Z,59.01
2019-04-28T07:42:42.893Z,52.95
2019-04-28T07:45:13.483Z,50.68
2019-04-28T07:47:43.855Z,50.68
2019-04-28T07:50:14.594Z,49.26
2019-04-28T07:52:59.819Z,43.57
2019-04-28T07:55:30.261Z,41.73
2019-04-28T07:58:02.437Z,37.97
2019-04-28T08:00:33.270Z,38.03
2019-04-28T08:03:06.124Z,35.86
2019-04-28T08:05:36.437Z,32.77
2019-04-28T08:08:07.119Z,31.53
2019-04-28T08:10:37.755Z,35.15
2019-04-28T08:13:08.211Z,39.01
2019-04-28T08:15:39.817Z,42.10
2019-04-28T08:18:11.513Z,44.16
2019-04-28T08:20:42.167Z,44.02
2019-04-28T08:23:13.714Z,43.35
2019-04-28T08:25:44.259Z,40.92
2019-04-28T08:28:15.085Z,42.08
2019-04-28T08:30:45.585Z,43.22
2019-04-28T08:34:01.661Z,42.02
2019-04-28T08:36:22.948Z,42.33
2019-04-28T08:38:55.578Z,44.60
2019-04-28T08:41:25.882Z,47.46
2019-04-28T08:43:56.559Z,40.32
2019-04-28T08:46:27.168Z,30.59
2019-04-28T08:48:58.752Z,25.67
2019-04-28T08:51:29.381Z,23.62
2019-04-28T08:53:59.978Z,22.59
2019-04-28T08:56:30.606Z,24.55
2019-04-28T08:59:01.731Z,28.64
2019-04-28T09:01:32.317Z,33.01
2019-04-28T09:04:14.877Z,36.09
2019-04-28T09:06:36.909Z,39.68
2019-04-28T09:09:13.182Z,42.95
2019-04-28T09:11:43.868Z,44.07
2019-04-28T09:14:15.312Z,45.41
2019-04-28T09:16:46.559Z,45.85
2019-04-28T09:19:18.452Z,44.57
2019-04-28T09:21:49.012Z,35.67
2019-04-28T09:24:20.688Z,26.57
2019-04-28T09:26:51.302Z,23.50
2019-04-28T09:29:22.390Z,23.43
2019-04-28T09:31:52.959Z,26.04
2019-04-28T09:34:28.351Z,30.23
2019-04-28T09:36:58.201Z,33.00
2019-04-28T09:39:46.428Z,32.20
2019-04-28T09:45:16.140Z,32.92
2019-04-28T09:47:46.564Z,35.38
2019-04-28T09:50:17.263Z,33.80
2019-04-28T09:52:48.859Z,32.69
2019-04-28T09:55:20.862Z,26.35
2019-04-28T09:57:54.800Z,24.96
2019-04-28T10:00:25.511Z,25.08
2019-04-28T10:02:56.776Z,28.98
2019-04-28T10:05:27.355Z,32.17
2019-04-28T10:07:59.930Z,26.81
2019-04-28T10:10:31.137Z,27.06
2019-04-28T10:13:02.631Z,28.64
2019-04-28T10:15:33.909Z,30.97
2019-04-28T10:18:05.494Z,37.47
2019-04-28T10:20:36.155Z,37.47
2019-04-28T10:23:09.520Z,37.05
2019-04-28T10:25:40.135Z,38.17
2019-04-28T10:28:13.884Z,35.75
2019-04-28T10:30:44.436Z,29.83
2019-04-28T10:33:15.032Z,28.87
2019-04-28T10:35:45.914Z,30.51
2019-04-28T10:38:17.542Z,27.41
2019-04-28T10:40:56.859Z,28.81
2019-04-28T10:43:27.409Z,31.21
2019-04-28T10:45:58.182Z,34.59
2019-04-28T10:48:29.230Z,33.97
2019-04-28T10:51:01.210Z,33.97
2019-04-28T10:53:31.881Z,32.24
2019-04-28T10:56:02.253Z,30.41
2019-04-28T10:58:33.186Z,27.32
2019-04-28T11:01:03.566Z,23.32
2019-04-28T11:03:34.220Z,21.77
2019-04-28T11:06:04.797Z,23.06
2019-04-28T11:08:52.486Z,23.50
2019-04-28T11:11:27.478Z,23.78
2019-04-28T11:13:58.625Z,25.46
2019-04-28T11:16:35.133Z,30.62
2019-04-28T11:19:06.304Z,35.05
2019-04-28T11:21:36.932Z,38.46
2019-04-28T11:24:07.320Z,40.08
2019-04-28T11:26:37.992Z,40.69
2019-04-28T11:29:09.741Z,34.07
2019-04-28T11:31:40.423Z,27.12
2019-04-28T11:34:30.813Z,23.37
2019-04-28T11:37:01.679Z,22.34
2019-04-28T11:39:35.136Z,21.60
2019-04-28T11:42:08.328Z,22.89
2019-04-28T11:44:38.922Z,25.92
2019-04-28T11:47:11.863Z,29.27
2019-04-28T11:49:42.452Z,28.40
2019-04-28T11:52:13.473Z,25.95
2019-04-28T11:54:44.174Z,26.98
2019-04-28T11:57:15.064Z,28.01
2019-04-28T11:59:45.581Z,30.08
2019-04-28T12:02:16.564Z,30.08
2019-04-28T12:04:47.121Z,30.94
2019-04-28T12:07:17.818Z,31.83
2019-04-28T12:10:04.462Z,33.56
2019-04-28T12:12:35.908Z,33.77
2019-04-28T12:15:17.572Z,32.70
2019-04-28T12:18:10.132Z,32.70
2019-04-28T12:20:41.158Z,32.27
2019-04-28T12:23:11.715Z,32.26
2019-04-28T12:25:42.308Z,32.50
2019-04-28T12:28:12.918Z,32.36
2019-04-28T12:30:43.502Z,32.74
2019-04-28T12:33:14.199Z,35.23
2019-04-28T12:35:47.877Z,34.85
2019-04-28T12:38:16.946Z,35.98
2019-04-28T12:40:47.606Z,36.46
2019-04-28T12:43:17.926Z,38.19
2019-04-28T12:45:48.826Z,38.16
2019-04-28T12:48:19.158Z,38.22
2019-04-28T12:50:51.110Z,39.19
2019-04-28T12:53:22.388Z,39.77
2019-04-28T12:55:52.995Z,40.34
2019-04-28T12:58:23.601Z,40.58
2019-04-28T13:01:07.483Z,41.60
2019-04-28T13:03:48.605Z,42.67
2019-04-28T13:06:19.292Z,44.12
2019-04-28T13:08:49.919Z,45.18
2019-04-28T13:11:21.946Z,45.18
2019-04-28T13:13:52.211Z,45.01
2019-04-28T13:16:22.661Z,44.30
2019-04-28T13:18:53.300Z,43.95
2019-04-28T13:21:24.194Z,42.75
2019-04-28T13:23:54.512Z,42.38
2019-04-28T13:26:24.829Z,42.18
2019-04-28T13:28:55.433Z,41.85
2019-04-28T13:31:25.776Z,40.62
2019-04-28T13:33:58.088Z,40.14
2019-04-28T13:36:28.950Z,40.67
2019-04-28T13:39:01.697Z,41.05
2019-04-28T13:41:33.765Z,41.29
2019-04-28T13:44:06.530Z,41.58
2019-04-28T13:46:37.228Z,41.87
2019-04-28T13:49:09.676Z,41.65
2019-04-28T13:51:40.080Z,41.51
2019-04-28T13:54:14.201Z,41.44
2019-04-28T13:56:44.871Z,41.89
2019-04-28T13:59:18.899Z,41.17
2019-04-28T14:02:03.702Z,39.84
2019-04-28T14:04:46.320Z,39.84
2019-04-28T14:07:16.708Z,40.33
2019-04-28T14:09:47.351Z,39.57
2019-04-28T14:12:17.961Z,38.19
2019-04-28T14:14:49.090Z,36.94
2019-04-28T14:17:19.732Z,35.72
2019-04-28T14:19:50.208Z,35.37
2019-04-28T14:22:21.137Z,35.89
2019-04-28T14:24:52.862Z,38.09
2019-04-28T14:27:23.548Z,38.09
2019-04-28T14:29:56.077Z,38.48
2019-04-28T14:32:26.775Z,39.20
2019-04-28T14:34:57.393Z,40.71
2019-04-28T14:37:27.763Z,42.35
2019-04-28T14:40:00.685Z,45.61
2019-04-28T14:42:31.315Z,54.40
2019-04-28T14:45:03.366Z,56.65
2019-04-28T14:47:35.000Z,59.02
2019-04-28T14:50:07.375Z,59.19
2019-04-28T14:52:37.744Z,59.95
2019-04-28T14:55:08.937Z,61.71
2019-04-28T14:57:39.335Z,61.36
2019-04-28T15:00:12.438Z,60.25
2019-04-28T15:03:04.875Z,59.35
2019-04-28T15:05:50.914Z,56.21
2019-04-28T15:08:39.854Z,54.57
2019-04-28T15:11:25.008Z,55.22
2019-04-28T15:13:55.648Z,54.29
2019-04-28T15:16:26.058Z,54.37
2019-04-28T15:18:57.688Z,55.09
2019-04-28T15:21:28.301Z,54.30
2019-04-28T15:23:58.800Z,53.97
2019-04-28T15:26:29.192Z,54.64
2019-04-28T15:29:00.626Z,55.43
2019-04-28T15:31:32.596Z,54.92
2019-04-28T15:34:03.146Z,55.51
2019-04-28T15:36:33.555Z,56.45
2019-04-28T15:39:06.873Z,56.58
2019-04-28T15:41:37.598Z,57.41
2019-04-28T15:44:08.034Z,56.32
2019-04-28T15:46:38.391Z,56.29
2019-04-28T15:49:09.001Z,55.76
2019-04-28T15:51:41.832Z,55.11
2019-04-28T15:54:12.180Z,54.28
2019-04-28T15:56:45.694Z,54.33
2019-04-28T15:59:18.629Z,54.26
2019-04-28T16:01:49.341Z,53.65
2019-04-28T16:04:19.964Z,53.68
2019-04-28T16:06:50.661Z,52.98
2019-04-28T16:09:22.851Z,53.61
2019-04-28T16:11:53.460Z,53.60
2019-04-28T16:14:23.994Z,53.85
2019-04-28T16:16:54.672Z,54.19
2019-04-28T16:19:25.425Z,54.66
2019-04-28T16:21:56.007Z,55.26
2019-04-28T16:24:26.623Z,55.71
2019-04-28T16:26:56.952Z,55.54
2019-04-28T16:29:27.358Z,56.22
2019-04-28T16:31:57.928Z,56.27
2019-04-28T16:34:28.485Z,56.77
2019-04-28T16:36:59.130Z,56.49
2019-04-28T16:39:29.646Z,55.33
2019-04-28T16:42:01.375Z,54.65
2019-04-28T16:44:32.733Z,54.78
2019-04-28T16:47:03.061Z,54.48
2019-04-28T16:49:35.844Z,54.22
2019-04-28T16:52:06.165Z,53.90
2019-04-28T16:54:36.897Z,54.35
2019-04-28T16:57:16.968Z,53.65
2019-04-28T16:59:57.700Z,51.46
2019-04-28T17:02:36.094Z,51.60
2019-04-28T17:05:08.481Z,50.84
2019-04-28T17:07:46.059Z,50.24
2019-04-28T17:10:12.137Z,50.19
2019-04-28T17:12:42.729Z,50.03
2019-04-28T17:15:14.556Z,50.03
2019-04-28T17:17:44.975Z,50.08
2019-04-28T17:20:15.634Z,49.40
2019-04-28T17:22:46.065Z,49.58
2019-04-28T17:25:17.940Z,49.71
2019-04-28T17:27:48.324Z,49.77
2019-04-28T17:30:18.864Z,49.85
2019-04-28T17:32:49.249Z,50.22
2019-04-28T17:35:21.541Z,50.74
2019-04-28T17:38:05.742Z,52.96
2019-04-28T17:40:26.083Z,55.56
2019-04-28T17:42:56.712Z,57.46
2019-04-28T17:45:27.492Z,59.07
2019-04-28T17:48:03.096Z,59.81
2019-04-28T17:50:33.787Z,60.82
2019-04-28T17:53:04.916Z,60.74
2019-04-28T17:55:35.430Z,60.54
2019-04-28T17:58:06.940Z,60.69
2019-04-28T18:00:50.186Z,61.18
2019-04-28T18:03:27.882Z,60.95
2019-04-28T18:06:17.592Z,61.31
2019-04-28T18:08:39.346Z,61.80
2019-04-28T18:11:09.634Z,62.44
2019-04-28T18:13:39.948Z,62.77
2019-04-28T18:16:29.711Z,63.17
2019-04-28T18:19:04.903Z,63.60
2019-04-28T18:21:35.275Z,64.06
2019-04-28T18:24:05.801Z,64.37
2019-04-28T18:26:36.493Z,64.90
2019-04-28T18:29:06.829Z,65.46
2019-04-28T18:31:56.639Z,66.15
2019-04-28T18:34:47.031Z,66.30
2019-04-28T18:37:43.868Z,66.54
2019-04-28T18:40:30.472Z,66.81
2019-04-28T18:43:20.386Z,67.00
2019-04-28T18:45:50.949Z,67.24
2019-04-28T18:48:21.299Z,67.71
2019-04-28T18:50:52.608Z,68.14
2019-04-28T18:53:22.967Z,68.51
2019-04-28T18:55:54.308Z,68.73
2019-04-28T18:58:24.940Z,69.02
2019-04-28T19:01:30.320Z,69.29
2019-04-28T19:04:00.644Z,69.67
2019-04-28T19:06:31.037Z,70.16
2019-04-28T19:09:14.095Z,70.64
2019-04-28T19:11:48.842Z,71.25
2019-04-28T19:14:29.507Z,71.50
2019-04-28T19:17:38.353Z,72.20
2019-04-28T19:20:13.569Z,72.20
2019-04-28T19:22:46.809Z,72.26
2019-04-28T19:25:20.599Z,72.43
2019-04-28T19:27:51.000Z,72.50
2019-04-28T19:30:21.795Z,72.71
2019-04-28T19:32:52.253Z,72.94
2019-04-28T19:35:23.976Z,73.22
2019-04-28T19:37:54.427Z,73.45
2019-04-28T19:40:26.568Z,73.77
2019-04-28T19:42:57.014Z,74.14
2019-04-28T19:45:30.198Z,74.63
2019-04-28T19:48:00.675Z,74.92
2019-04-28T19:50:30.971Z,75.16
2019-04-28T19:53:01.611Z,75.24
2019-04-28T19:55:36.202Z,75.40
2019-04-28T19:58:26.456Z,75.70
2019-04-28T20:01:01.977Z,76.78
2019-04-28T20:03:32.758Z,76.58
2019-04-28T20:06:03.543Z,76.42
2019-04-28T20:08:33.963Z,76.31
2019-04-28T20:11:04.343Z,76.49
2019-04-28T20:13:34.793Z,76.63
2019-04-28T20:16:05.242Z,77.03
2019-04-28T20:18:35.656Z,77.29
2019-04-28T20:21:07.917Z,77.36
2019-04-28T20:23:38.267Z,77.46
2019-04-28T20:26:10.492Z,77.72
2019-04-28T20:28:41.170Z,78.11
2019-04-28T20:31:13.791Z,78.87
2019-04-28T20:33:44.174Z,78.87
2019-04-28T20:47:40.597Z,80.40
2019-04-28T20:50:17.984Z,80.64
2019-04-28T21:00:48.520Z,81.44
2019-04-28T21:03:18.877Z,81.60
2019-04-28T21:05:49.223Z,81.82
2019-04-28T21:08:19.499Z,81.95
2019-04-28T21:10:50.223Z,82.05
2019-04-28T21:13:20.737Z,82.11
2019-04-28T21:15:52.322Z,82.33
2019-04-28T21:18:22.760Z,82.39
2019-04-28T21:20:53.341Z,82.38
2019-04-28T21:23:24.589Z,82.46
2019-04-28T21:25:54.931Z,82.52
2019-04-28T21:28:25.567Z,82.68
2019-04-28T21:30:55.919Z,82.79
2019-04-28T21:33:26.454Z,82.84
2019-04-28T21:35:57.019Z,82.91
2019-04-28T21:38:27.490Z,82.98
2019-04-28T21:40:57.808Z,83.09
2019-04-28T21:43:51.859Z,83.29
2019-04-28T21:46:31.716Z,83.46
2019-04-28T21:49:17.043Z,83.69
2019-04-28T21:51:47.481Z,83.85
2019-04-28T21:54:17.848Z,84.00
2019-04-28T21:56:48.481Z,84.27
2019-04-28T21:59:18.894Z,84.38
2019-04-28T22:01:49.259Z,84.52
2019-04-28T22:04:19.698Z,84.65
2019-04-28T22:06:50.341Z,84.78
2019-04-28T22:09:21.016Z,84.86
2019-04-28T22:11:51.286Z,84.93
2019-04-28T22:14:21.599Z,85.00
2019-04-28T22:16:51.902Z,85.06
2019-04-28T22:19:23.791Z,85.17
2019-04-28T22:21:55.866Z,85.29
2019-04-28T22:24:40.046Z,85.41
2019-04-28T22:27:12.661Z,85.44
2019-04-28T22:29:42.975Z,85.54
2019-04-28T22:32:13.675Z,85.64
2019-04-28T22:34:44.018Z,85.68
2019-04-28T22:37:14.596Z,85.70
2019-04-28T22:39:47.910Z,85.67
2019-04-28T22:42:18.466Z,85.72
2019-04-28T22:44:50.279Z,86.04
2019-04-28T22:47:20.707Z,86.26
2019-04-28T22:49:51.212Z,86.33
2019-04-28T22:52:22.232Z,86.29
2019-04-28T22:55:11.446Z,86.22
2019-04-28T22:58:06.609Z,86.20
2019-04-28T23:00:55.675Z,86.22
2019-04-28T23:03:37.160Z,86.28
2019-04-28T23:06:10.359Z,86.33
2019-04-28T23:08:39.973Z,86.48
2019-04-28T23:11:10.331Z,86.60
2019-04-28T23:13:40.912Z,86.76
2019-04-28T23:16:11.290Z,86.87
2019-04-28T23:18:43.334Z,86.90
2019-04-28T23:21:22.300Z,86.95
2019-04-28T23:23:52.874Z,86.97
2019-04-28T23:26:23.234Z,86.99
2019-04-28T23:28:55.768Z,87.03
2019-04-28T23:31:26.024Z,87.05
2019-04-28T23:34:00.607Z,87.06
2019-04-28T23:36:31.029Z,87.03
2019-04-28T23:39:01.914Z,87.00
2019-04-28T23:41:39.222Z,87.02
2019-04-28T23:44:09.872Z,87.06
2019-04-28T23:46:56.405Z,87.09
2019-04-28T23:49:27.939Z,87.18
2019-04-28T23:52:06.500Z,87.25
2019-04-28T23:54:38.525Z,87.35
2019-04-28T23:57:08.936Z,87.41
2019-04-28T23:59:39.265Z,87.47
